sensor_id;sensor_type;location;lat;lon;timestamp;pressure;altitude;pressure_sealevel;temperature;humidity
6532;BME280;3299;42.004;24.868;2022-07-06T00:01:29;98161.34;;;23.53;65.55
6532;BME280;3299;42.004;24.868;2022-07-06T00:03:55;98167.91;;;23.36;66.59
6532;BME280;3299;42.004;24.868;2022-07-06T00:06:20;98176.66;;;23.64;65.60
6532;BME280;3299;42.004;24.868;2022-07-06T00:08:46;98177.41;;;23.79;64.96
6532;BME280;3299;42.004;24.868;2022-07-06T00:11:11;98175.72;;;23.72;65.61
6532;BME280;3299;42.004;24.868;2022-07-06T00:13:37;98174.50;;;23.74;65.68
6532;BME280;3299;42.004;24.868;2022-07-06T00:16:02;98163.47;;;23.92;64.97
6532;BME280;3299;42.004;24.868;2022-07-06T00:18:28;98157.63;;;24.02;64.47
6532;BME280;3299;42.004;24.868;2022-07-06T00:20:54;98157.06;;;23.79;65.93
6532;BME280;3299;42.004;24.868;2022-07-06T00:23:19;98157.09;;;23.86;65.24
6532;BME280;3299;42.004;24.868;2022-07-06T00:25:45;98149.41;;;23.63;66.73
6532;BME280;3299;42.004;24.868;2022-07-06T00:28:10;98143.47;;;23.55;67.76
6532;BME280;3299;42.004;24.868;2022-07-06T00:30:36;98143.28;;;23.57;66.10
6532;BME280;3299;42.004;24.868;2022-07-06T00:33:02;98140.09;;;23.67;65.38
6532;BME280;3299;42.004;24.868;2022-07-06T00:35:27;98127.66;;;23.62;64.80
6532;BME280;3299;42.004;24.868;2022-07-06T00:37:53;98123.00;;;23.63;64.81
6532;BME280;3299;42.004;24.868;2022-07-06T00:40:19;98131.03;;;23.83;65.17
6532;BME280;3299;42.004;24.868;2022-07-06T00:42:46;98131.59;;;24.00;63.93
6532;BME280;3299;42.004;24.868;2022-07-06T00:45:12;98131.38;;;24.01;64.43
6532;BME280;3299;42.004;24.868;2022-07-06T00:47:39;98123.81;;;23.92;65.43
6532;BME280;3299;42.004;24.868;2022-07-06T00:50:06;98120.06;;;23.79;66.45
6532;BME280;3299;42.004;24.868;2022-07-06T00:52:57;98110.75;;;23.83;66.05
6532;BME280;3299;42.004;24.868;2022-07-06T00:55:25;98109.19;;;23.96;65.90
6532;BME280;3299;42.004;24.868;2022-07-06T00:57:52;98112.69;;;24.02;65.58
6532;BME280;3299;42.004;24.868;2022-07-06T01:00:20;98114.53;;;24.08;64.98
6532;BME280;3299;42.004;24.868;2022-07-06T01:02:46;98112.97;;;24.20;64.05
6532;BME280;3299;42.004;24.868;2022-07-06T01:05:13;98103.22;;;24.21;64.19
6532;BME280;3299;42.004;24.868;2022-07-06T01:07:41;98101.59;;;24.26;63.58
6532;BME280;3299;42.004;24.868;2022-07-06T01:10:09;98098.34;;;24.24;64.74
6532;BME280;3299;42.004;24.868;2022-07-06T01:12:37;98089.38;;;24.25;64.09
6532;BME280;3299;42.004;24.868;2022-07-06T01:15:05;98090.22;;;24.32;63.48
6532;BME280;3299;42.004;24.868;2022-07-06T01:17:32;98079.34;;;24.02;65.09
6532;BME280;3299;42.004;24.868;2022-07-06T01:20:14;98086.44;;;23.95;64.72
6532;BME280;3299;42.004;24.868;2022-07-06T01:22:41;98075.81;;;23.88;64.73
6532;BME280;3299;42.004;24.868;2022-07-06T01:25:07;98080.41;;;23.73;65.68
6532;BME280;3299;42.004;24.868;2022-07-06T01:27:37;98067.22;;;23.79;63.90
6532;BME280;3299;42.004;24.868;2022-07-06T01:30:08;98064.31;;;23.68;63.92
6532;BME280;3299;42.004;24.868;2022-07-06T01:32:35;98053.56;;;23.15;66.90
6532;BME280;3299;42.004;24.868;2022-07-06T01:35:00;98041.91;;;23.03;66.98
6532;BME280;3299;42.004;24.868;2022-07-06T01:37:26;98040.22;;;22.95;67.70
6532;BME280;3299;42.004;24.868;2022-07-06T01:39:51;98027.44;;;22.92;67.37
6532;BME280;3299;42.004;24.868;2022-07-06T01:42:17;98015.38;;;22.83;67.98
6532;BME280;3299;42.004;24.868;2022-07-06T01:44:43;98030.78;;;22.80;69.36
6532;BME280;3299;42.004;24.868;2022-07-06T01:47:10;98043.56;;;22.83;69.24
6532;BME280;3299;42.004;24.868;2022-07-06T01:49:35;98036.56;;;22.96;67.73
6532;BME280;3299;42.004;24.868;2022-07-06T01:52:01;98033.50;;;22.93;67.95
6532;BME280;3299;42.004;24.868;2022-07-06T01:54:26;98043.00;;;22.87;68.04
6532;BME280;3299;42.004;24.868;2022-07-06T01:56:52;98024.81;;;22.71;68.64
6532;BME280;3299;42.004;24.868;2022-07-06T02:01:42;98011.28;;;22.81;68.24
6532;BME280;3299;42.004;24.868;2022-07-06T02:04:08;98009.09;;;22.84;68.13
6532;BME280;3299;42.004;24.868;2022-07-06T02:06:33;98003.97;;;22.76;68.74
6532;BME280;3299;42.004;24.868;2022-07-06T02:08:59;98007.78;;;22.74;68.98
6532;BME280;3299;42.004;24.868;2022-07-06T02:11:24;98006.59;;;22.55;69.62
6532;BME280;3299;42.004;24.868;2022-07-06T02:13:50;97999.50;;;22.35;70.88
6532;BME280;3299;42.004;24.868;2022-07-06T02:16:15;97988.56;;;22.17;71.56
6532;BME280;3299;42.004;24.868;2022-07-06T02:18:41;97997.72;;;22.00;72.93
6532;BME280;3299;42.004;24.868;2022-07-06T02:21:07;97991.72;;;21.91;73.21
6532;BME280;3299;42.004;24.868;2022-07-06T02:23:32;97995.56;;;21.89;73.72
6532;BME280;3299;42.004;24.868;2022-07-06T02:25:58;98001.84;;;21.88;74.11
6532;BME280;3299;42.004;24.868;2022-07-06T02:28:23;97995.13;;;21.85;73.89
6532;BME280;3299;42.004;24.868;2022-07-06T02:30:49;97989.53;;;21.74;74.41
6532;BME280;3299;42.004;24.868;2022-07-06T02:33:14;97991.06;;;21.68;74.91
6532;BME280;3299;42.004;24.868;2022-07-06T02:35:40;97986.63;;;21.69;74.96
6532;BME280;3299;42.004;24.868;2022-07-06T02:38:08;97983.50;;;21.80;74.54
6532;BME280;3299;42.004;24.868;2022-07-06T02:40:34;97981.44;;;21.75;74.33
6532;BME280;3299;42.004;24.868;2022-07-06T02:42:59;97980.53;;;21.68;74.47
6532;BME280;3299;42.004;24.868;2022-07-06T02:45:25;97989.44;;;21.67;74.86
6532;BME280;3299;42.004;24.868;2022-07-06T02:47:50;97991.16;;;21.46;75.58
6532;BME280;3299;42.004;24.868;2022-07-06T02:50:16;97995.16;;;21.42;75.99
6532;BME280;3299;42.004;24.868;2022-07-06T02:52:42;98001.31;;;21.49;75.34
6532;BME280;3299;42.004;24.868;2022-07-06T02:55:07;97998.06;;;21.47;75.90
6532;BME280;3299;42.004;24.868;2022-07-06T02:57:33;98002.13;;;21.49;75.65
6532;BME280;3299;42.004;24.868;2022-07-06T02:59:58;98003.22;;;21.40;76.55
6532;BME280;3299;42.004;24.868;2022-07-06T03:02:24;97993.53;;;21.41;76.75
6532;BME280;3299;42.004;24.868;2022-07-06T03:04:50;98008.69;;;21.39;77.09
6532;BME280;3299;42.004;24.868;2022-07-06T03:07:16;98006.66;;;21.55;76.32
6532;BME280;3299;42.004;24.868;2022-07-06T03:09:41;98018.09;;;21.62;76.13
6532;BME280;3299;42.004;24.868;2022-07-06T03:12:07;98012.22;;;21.75;75.12
6532;BME280;3299;42.004;24.868;2022-07-06T03:14:32;98006.66;;;21.84;74.98
6532;BME280;3299;42.004;24.868;2022-07-06T03:16:58;98012.28;;;21.96;74.38
6532;BME280;3299;42.004;24.868;2022-07-06T03:19:23;98018.03;;;21.85;74.70
6532;BME280;3299;42.004;24.868;2022-07-06T03:21:49;98024.38;;;21.76;74.99
6532;BME280;3299;42.004;24.868;2022-07-06T03:24:14;98028.19;;;21.73;75.52
6532;BME280;3299;42.004;24.868;2022-07-06T03:26:40;98025.75;;;21.72;75.82
6532;BME280;3299;42.004;24.868;2022-07-06T03:29:05;98026.84;;;21.77;75.82
6532;BME280;3299;42.004;24.868;2022-07-06T03:31:31;98030.06;;;21.94;75.72
6532;BME280;3299;42.004;24.868;2022-07-06T03:33:56;98021.59;;;21.98;75.66
6532;BME280;3299;42.004;24.868;2022-07-06T03:36:21;98018.88;;;22.06;75.31
6532;BME280;3299;42.004;24.868;2022-07-06T03:38:48;98022.47;;;22.20;75.25
6532;BME280;3299;42.004;24.868;2022-07-06T03:41:13;98023.88;;;22.37;73.66
6532;BME280;3299;42.004;24.868;2022-07-06T03:43:38;98022.63;;;22.54;73.68
6532;BME280;3299;42.004;24.868;2022-07-06T03:46:04;98029.25;;;22.71;73.60
6532;BME280;3299;42.004;24.868;2022-07-06T03:48:29;98036.91;;;22.87;72.24
6532;BME280;3299;42.004;24.868;2022-07-06T03:50:55;98038.06;;;22.78;71.27
6532;BME280;3299;42.004;24.868;2022-07-06T03:53:21;98044.91;;;22.72;70.74
6532;BME280;3299;42.004;24.868;2022-07-06T03:55:47;98044.56;;;22.82;70.38
6532;BME280;3299;42.004;24.868;2022-07-06T03:58:32;98040.94;;;22.83;69.90
6532;BME280;3299;42.004;24.868;2022-07-06T04:00:58;98048.19;;;22.74;70.96
6532;BME280;3299;42.004;24.868;2022-07-06T04:03:23;98046.97;;;22.77;71.67
6532;BME280;3299;42.004;24.868;2022-07-06T04:05:49;98050.00;;;22.95;70.79
6532;BME280;3299;42.004;24.868;2022-07-06T04:08:14;98041.56;;;23.12;69.99
6532;BME280;3299;42.004;24.868;2022-07-06T04:10:40;98046.97;;;23.25;68.80
6532;BME280;3299;42.004;24.868;2022-07-06T04:13:05;98047.63;;;23.27;68.89
6532;BME280;3299;42.004;24.868;2022-07-06T04:15:30;98043.28;;;23.20;69.39
6532;BME280;3299;42.004;24.868;2022-07-06T04:17:56;98052.22;;;23.19;69.98
6532;BME280;3299;42.004;24.868;2022-07-06T04:20:22;98056.72;;;23.25;69.94
6532;BME280;3299;42.004;24.868;2022-07-06T04:22:49;98054.53;;;23.35;70.21
6532;BME280;3299;42.004;24.868;2022-07-06T04:25:15;98060.06;;;23.40;70.12
6532;BME280;3299;42.004;24.868;2022-07-06T04:27:40;98056.88;;;23.51;69.65
6532;BME280;3299;42.004;24.868;2022-07-06T04:30:08;98053.28;;;23.58;68.40
6532;BME280;3299;42.004;24.868;2022-07-06T04:32:34;98058.16;;;23.61;68.76
6532;BME280;3299;42.004;24.868;2022-07-06T04:35:00;98056.63;;;23.73;68.67
6532;BME280;3299;42.004;24.868;2022-07-06T04:37:26;98063.94;;;23.77;67.88
6532;BME280;3299;42.004;24.868;2022-07-06T04:39:51;98061.13;;;23.85;67.98
6532;BME280;3299;42.004;24.868;2022-07-06T04:42:16;98063.03;;;23.92;67.41
6532;BME280;3299;42.004;24.868;2022-07-06T04:44:42;98068.53;;;23.97;66.83
6532;BME280;3299;42.004;24.868;2022-07-06T04:47:08;98064.19;;;23.83;67.25
6532;BME280;3299;42.004;24.868;2022-07-06T04:49:33;98044.09;;;23.88;66.71
6532;BME280;3299;42.004;24.868;2022-07-06T04:51:59;98062.88;;;24.06;67.06
6532;BME280;3299;42.004;24.868;2022-07-06T04:54:24;98061.28;;;24.12;66.68
6532;BME280;3299;42.004;24.868;2022-07-06T04:56:50;98060.91;;;24.27;67.15
6532;BME280;3299;42.004;24.868;2022-07-06T04:59:15;98062.38;;;24.49;66.67
6532;BME280;3299;42.004;24.868;2022-07-06T05:01:41;98064.22;;;24.55;66.49
6532;BME280;3299;42.004;24.868;2022-07-06T05:04:07;98061.63;;;24.68;66.42
6532;BME280;3299;42.004;24.868;2022-07-06T05:06:33;98058.59;;;24.71;66.18
6532;BME280;3299;42.004;24.868;2022-07-06T05:08:59;98073.25;;;24.87;65.33
6532;BME280;3299;42.004;24.868;2022-07-06T05:11:28;98065.09;;;24.82;65.22
6532;BME280;3299;42.004;24.868;2022-07-06T05:13:54;98069.59;;;24.81;65.98
6532;BME280;3299;42.004;24.868;2022-07-06T05:16:20;98046.38;;;24.58;66.22
6532;BME280;3299;42.004;24.868;2022-07-06T05:18:46;98062.66;;;24.67;66.08
6532;BME280;3299;42.004;24.868;2022-07-06T05:21:12;98069.78;;;24.73;66.16
6532;BME280;3299;42.004;24.868;2022-07-06T05:23:37;98070.59;;;24.61;66.69
6532;BME280;3299;42.004;24.868;2022-07-06T05:26:03;98068.38;;;24.64;67.17
6532;BME280;3299;42.004;24.868;2022-07-06T05:28:28;98072.00;;;24.57;67.47
6532;BME280;3299;42.004;24.868;2022-07-06T05:30:54;98076.81;;;24.34;68.84
6532;BME280;3299;42.004;24.868;2022-07-06T05:33:19;98077.44;;;24.42;69.31
6532;BME280;3299;42.004;24.868;2022-07-06T05:35:45;98081.53;;;24.51;69.41
6532;BME280;3299;42.004;24.868;2022-07-06T05:38:10;98075.44;;;24.51;69.22
6532;BME280;3299;42.004;24.868;2022-07-06T05:40:36;98084.03;;;24.59;68.68
6532;BME280;3299;42.004;24.868;2022-07-06T05:43:01;98089.91;;;24.61;69.35
6532;BME280;3299;42.004;24.868;2022-07-06T05:45:27;98091.19;;;24.72;69.22
6532;BME280;3299;42.004;24.868;2022-07-06T05:47:52;98083.25;;;24.72;69.67
6532;BME280;3299;42.004;24.868;2022-07-06T05:50:36;98089.34;;;24.85;68.94
6532;BME280;3299;42.004;24.868;2022-07-06T05:53:03;98093.66;;;24.99;68.08
6532;BME280;3299;42.004;24.868;2022-07-06T05:55:29;98085.91;;;24.98;67.87
6532;BME280;3299;42.004;24.868;2022-07-06T05:57:55;98097.28;;;25.05;67.54
6532;BME280;3299;42.004;24.868;2022-07-06T06:00:25;98107.09;;;25.17;67.28
6532;BME280;3299;42.004;24.868;2022-07-06T06:02:51;98108.91;;;25.23;66.62
6532;BME280;3299;42.004;24.868;2022-07-06T06:05:18;98112.41;;;25.37;65.99
6532;BME280;3299;42.004;24.868;2022-07-06T06:07:43;98104.25;;;25.45;65.72
6532;BME280;3299;42.004;24.868;2022-07-06T06:10:13;98115.84;;;25.37;66.79
6532;BME280;3299;42.004;24.868;2022-07-06T06:12:39;98115.28;;;25.42;66.65
6532;BME280;3299;42.004;24.868;2022-07-06T06:15:06;98114.22;;;25.49;66.19
6532;BME280;3299;42.004;24.868;2022-07-06T06:17:32;98108.31;;;25.47;66.28
6532;BME280;3299;42.004;24.868;2022-07-06T06:19:58;98105.06;;;25.45;66.63
6532;BME280;3299;42.004;24.868;2022-07-06T06:22:23;98111.56;;;25.62;66.17
6532;BME280;3299;42.004;24.868;2022-07-06T06:24:49;98100.16;;;25.49;66.50
6532;BME280;3299;42.004;24.868;2022-07-06T06:27:15;98104.22;;;25.71;64.87
6532;BME280;3299;42.004;24.868;2022-07-06T06:29:41;98102.50;;;25.89;65.15
6532;BME280;3299;42.004;24.868;2022-07-06T06:32:07;98104.09;;;26.10;65.36
6532;BME280;3299;42.004;24.868;2022-07-06T06:34:33;98098.31;;;26.32;63.51
6532;BME280;3299;42.004;24.868;2022-07-06T06:36:58;98103.28;;;26.53;62.23
6532;BME280;3299;42.004;24.868;2022-07-06T06:39:24;98106.13;;;26.65;61.71
6532;BME280;3299;42.004;24.868;2022-07-06T06:41:49;98111.75;;;26.75;61.41
6532;BME280;3299;42.004;24.868;2022-07-06T06:44:16;98110.69;;;26.82;60.72
6532;BME280;3299;42.004;24.868;2022-07-06T06:46:43;98117.03;;;26.81;60.80
6532;BME280;3299;42.004;24.868;2022-07-06T06:49:09;98120.91;;;26.85;60.73
6532;BME280;3299;42.004;24.868;2022-07-06T06:51:34;98110.44;;;26.90;60.15
6532;BME280;3299;42.004;24.868;2022-07-06T06:54:00;98112.94;;;26.85;60.12
6532;BME280;3299;42.004;24.868;2022-07-06T06:56:26;98121.69;;;26.86;59.74
6532;BME280;3299;42.004;24.868;2022-07-06T06:58:51;98117.22;;;26.86;59.07
6532;BME280;3299;42.004;24.868;2022-07-06T07:01:16;98118.84;;;26.87;59.52
6532;BME280;3299;42.004;24.868;2022-07-06T07:03:42;98111.53;;;26.76;59.61
6532;BME280;3299;42.004;24.868;2022-07-06T07:06:07;98119.72;;;26.75;59.91
6532;BME280;3299;42.004;24.868;2022-07-06T07:08:33;98118.56;;;26.64;59.78
6532;BME280;3299;42.004;24.868;2022-07-06T07:10:58;98119.03;;;26.55;59.76
6532;BME280;3299;42.004;24.868;2022-07-06T07:13:24;98117.22;;;26.55;60.28
6532;BME280;3299;42.004;24.868;2022-07-06T07:15:49;98120.44;;;26.57;60.17
6532;BME280;3299;42.004;24.868;2022-07-06T07:18:15;98115.50;;;26.67;59.85
6532;BME280;3299;42.004;24.868;2022-07-06T07:20:40;98117.72;;;26.70;60.42
6532;BME280;3299;42.004;24.868;2022-07-06T07:23:06;98116.28;;;26.74;58.68
6532;BME280;3299;42.004;24.868;2022-07-06T07:25:31;98110.69;;;26.82;59.70
6532;BME280;3299;42.004;24.868;2022-07-06T07:27:57;98107.78;;;26.90;58.70
6532;BME280;3299;42.004;24.868;2022-07-06T07:30:22;98111.78;;;26.99;59.41
6532;BME280;3299;42.004;24.868;2022-07-06T07:32:48;98104.75;;;27.11;58.35
6532;BME280;3299;42.004;24.868;2022-07-06T07:35:13;98109.66;;;27.14;58.06
6532;BME280;3299;42.004;24.868;2022-07-06T07:37:39;98101.06;;;27.12;57.94
6532;BME280;3299;42.004;24.868;2022-07-06T07:40:04;98096.56;;;27.19;57.35
6532;BME280;3299;42.004;24.868;2022-07-06T07:42:31;98095.91;;;27.24;56.48
6532;BME280;3299;42.004;24.868;2022-07-06T07:44:57;98103.97;;;27.35;56.88
6532;BME280;3299;42.004;24.868;2022-07-06T07:47:22;98102.69;;;27.44;57.06
6532;BME280;3299;42.004;24.868;2022-07-06T07:49:48;98091.75;;;27.52;57.38
6532;BME280;3299;42.004;24.868;2022-07-06T07:52:13;98101.66;;;27.63;55.97
6532;BME280;3299;42.004;24.868;2022-07-06T07:54:39;98090.75;;;27.71;55.68
6532;BME280;3299;42.004;24.868;2022-07-06T07:57:05;98102.38;;;27.95;54.32
6532;BME280;3299;42.004;24.868;2022-07-06T07:59:30;98113.69;;;28.08;54.29
6532;BME280;3299;42.004;24.868;2022-07-06T08:01:56;98109.91;;;28.16;52.48
6532;BME280;3299;42.004;24.868;2022-07-06T08:04:21;98114.34;;;28.22;52.15
6532;BME280;3299;42.004;24.868;2022-07-06T08:06:47;98103.16;;;28.31;52.22
6532;BME280;3299;42.004;24.868;2022-07-06T08:09:12;98103.03;;;28.44;53.46
6532;BME280;3299;42.004;24.868;2022-07-06T08:11:38;98114.09;;;28.59;53.68
6532;BME280;3299;42.004;24.868;2022-07-06T08:14:04;98111.56;;;28.64;52.74
6532;BME280;3299;42.004;24.868;2022-07-06T08:16:30;98117.75;;;28.76;52.79
6532;BME280;3299;42.004;24.868;2022-07-06T08:18:55;98102.91;;;28.80;52.73
6532;BME280;3299;42.004;24.868;2022-07-06T08:21:21;98117.06;;;28.92;52.57
6532;BME280;3299;42.004;24.868;2022-07-06T08:23:46;98096.81;;;28.91;52.64
6532;BME280;3299;42.004;24.868;2022-07-06T08:26:12;98110.56;;;29.06;52.72
6532;BME280;3299;42.004;24.868;2022-07-06T08:28:38;98107.63;;;29.08;51.88
6532;BME280;3299;42.004;24.868;2022-07-06T08:31:03;98105.69;;;29.15;51.63
6532;BME280;3299;42.004;24.868;2022-07-06T08:33:29;98109.28;;;29.20;52.03
6532;BME280;3299;42.004;24.868;2022-07-06T08:35:54;98106.75;;;29.25;51.42
6532;BME280;3299;42.004;24.868;2022-07-06T08:38:20;98106.41;;;29.33;50.76
6532;BME280;3299;42.004;24.868;2022-07-06T08:40:49;98103.19;;;29.43;49.17
6532;BME280;3299;42.004;24.868;2022-07-06T08:43:15;98114.41;;;29.33;48.77
6532;BME280;3299;42.004;24.868;2022-07-06T08:45:41;98111.97;;;29.32;48.40
6532;BME280;3299;42.004;24.868;2022-07-06T08:48:10;98112.56;;;29.34;48.04
6532;BME280;3299;42.004;24.868;2022-07-06T08:50:36;98108.25;;;29.21;49.11
6532;BME280;3299;42.004;24.868;2022-07-06T08:53:02;98108.94;;;29.17;49.45
6532;BME280;3299;42.004;24.868;2022-07-06T08:55:28;98109.97;;;29.16;50.12
6532;BME280;3299;42.004;24.868;2022-07-06T08:57:57;98114.97;;;29.24;50.69
6532;BME280;3299;42.004;24.868;2022-07-06T09:00:23;98114.88;;;29.30;49.34
6532;BME280;3299;42.004;24.868;2022-07-06T09:02:50;98118.31;;;29.31;49.90
6532;BME280;3299;42.004;24.868;2022-07-06T09:05:21;98111.16;;;29.31;49.19
6532;BME280;3299;42.004;24.868;2022-07-06T09:07:49;98116.25;;;29.21;49.04
6532;BME280;3299;42.004;24.868;2022-07-06T09:10:18;98116.25;;;29.21;49.80
6532;BME280;3299;42.004;24.868;2022-07-06T09:12:44;98119.50;;;29.23;49.38
6532;BME280;3299;42.004;24.868;2022-07-06T09:15:09;98124.84;;;29.23;49.95
6532;BME280;3299;42.004;24.868;2022-07-06T09:17:38;98126.19;;;29.14;49.58
6532;BME280;3299;42.004;24.868;2022-07-06T09:20:07;98122.47;;;29.15;49.36
6532;BME280;3299;42.004;24.868;2022-07-06T09:22:33;98130.25;;;29.17;50.10
6532;BME280;3299;42.004;24.868;2022-07-06T09:27:31;98120.66;;;29.27;49.68
6532;BME280;3299;42.004;24.868;2022-07-06T09:29:59;98125.31;;;29.32;49.69
6532;BME280;3299;42.004;24.868;2022-07-06T09:32:26;98124.25;;;29.44;49.56
6532;BME280;3299;42.004;24.868;2022-07-06T09:34:52;98125.34;;;29.55;49.32
6532;BME280;3299;42.004;24.868;2022-07-06T09:37:17;98129.41;;;29.69;48.76
6532;BME280;3299;42.004;24.868;2022-07-06T09:39:43;98123.13;;;29.75;48.67
6532;BME280;3299;42.004;24.868;2022-07-06T09:42:10;98115.09;;;29.86;48.86
6532;BME280;3299;42.004;24.868;2022-07-06T09:44:37;98124.28;;;30.02;49.72
6532;BME280;3299;42.004;24.868;2022-07-06T09:47:05;98109.44;;;29.83;49.98
6532;BME280;3299;42.004;24.868;2022-07-06T09:49:31;98109.53;;;29.88;51.43
6532;BME280;3299;42.004;24.868;2022-07-06T09:51:59;98106.97;;;30.04;50.83
6532;BME280;3299;42.004;24.868;2022-07-06T09:54:25;98116.13;;;30.20;50.95
6532;BME280;3299;42.004;24.868;2022-07-06T09:56:52;98114.25;;;30.32;50.84
6532;BME280;3299;42.004;24.868;2022-07-06T09:59:19;98121.06;;;30.39;50.02
6532;BME280;3299;42.004;24.868;2022-07-06T10:01:46;98113.72;;;30.46;50.31
6532;BME280;3299;42.004;24.868;2022-07-06T10:04:13;98116.84;;;30.55;50.61
6532;BME280;3299;42.004;24.868;2022-07-06T10:06:40;98114.72;;;30.57;50.86
6532;BME280;3299;42.004;24.868;2022-07-06T10:09:07;98120.47;;;30.49;49.60
6532;BME280;3299;42.004;24.868;2022-07-06T10:11:59;98121.75;;;30.46;49.63
6532;BME280;3299;42.004;24.868;2022-07-06T10:14:33;98110.72;;;30.43;49.64
6532;BME280;3299;42.004;24.868;2022-07-06T10:17:00;98105.13;;;30.44;50.25
6532;BME280;3299;42.004;24.868;2022-07-06T10:19:27;98101.00;;;30.37;50.51
6532;BME280;3299;42.004;24.868;2022-07-06T10:21:53;98107.22;;;30.42;50.57
6532;BME280;3299;42.004;24.868;2022-07-06T10:24:21;98099.34;;;30.36;51.29
6532;BME280;3299;42.004;24.868;2022-07-06T10:26:48;98094.16;;;30.29;50.68
6532;BME280;3299;42.004;24.868;2022-07-06T10:29:14;98097.28;;;30.26;49.89
6532;BME280;3299;42.004;24.868;2022-07-06T10:31:43;98094.06;;;30.24;51.00
6532;BME280;3299;42.004;24.868;2022-07-06T10:34:11;98095.91;;;30.24;50.89
6532;BME280;3299;42.004;24.868;2022-07-06T10:36:41;98092.69;;;30.22;51.21
6532;BME280;3299;42.004;24.868;2022-07-06T10:39:08;98090.56;;;30.24;50.13
6532;BME280;3299;42.004;24.868;2022-07-06T10:41:53;98078.16;;;30.29;50.46
6532;BME280;3299;42.004;24.868;2022-07-06T10:44:22;98078.00;;;30.36;50.34
6532;BME280;3299;42.004;24.868;2022-07-06T10:46:55;98075.38;;;30.52;49.68
6532;BME280;3299;42.004;24.868;2022-07-06T10:49:22;98069.81;;;30.54;48.91
6532;BME280;3299;42.004;24.868;2022-07-06T10:51:48;98082.91;;;30.55;48.96
6532;BME280;3299;42.004;24.868;2022-07-06T10:54:15;98075.81;;;30.61;49.55
6532;BME280;3299;42.004;24.868;2022-07-06T10:56:47;98077.31;;;30.68;48.96
6532;BME280;3299;42.004;24.868;2022-07-06T11:02:15;98066.97;;;30.88;48.30
6532;BME280;3299;42.004;24.868;2022-07-06T11:04:44;98067.38;;;31.13;48.07
6532;BME280;3299;42.004;24.868;2022-07-06T11:07:12;98072.22;;;31.49;47.26
6532;BME280;3299;42.004;24.868;2022-07-06T11:09:38;98061.81;;;31.69;46.50
6532;BME280;3299;42.004;24.868;2022-07-06T11:12:17;98071.78;;;31.90;46.06
6532;BME280;3299;42.004;24.868;2022-07-06T11:14:44;98069.13;;;31.95;44.82
6532;BME280;3299;42.004;24.868;2022-07-06T11:17:10;98065.53;;;31.85;46.00
6532;BME280;3299;42.004;24.868;2022-07-06T11:19:36;98054.44;;;31.76;45.64
6532;BME280;3299;42.004;24.868;2022-07-06T11:22:09;98053.41;;;31.61;46.30
6532;BME280;3299;42.004;24.868;2022-07-06T11:24:40;98051.56;;;31.61;46.67
6532;BME280;3299;42.004;24.868;2022-07-06T11:27:05;98049.50;;;31.68;46.24
6532;BME280;3299;42.004;24.868;2022-07-06T11:29:35;98042.44;;;31.79;46.27
6532;BME280;3299;42.004;24.868;2022-07-06T11:32:03;98047.31;;;32.03;45.66
6532;BME280;3299;42.004;24.868;2022-07-06T11:34:31;98044.41;;;32.10;45.39
6532;BME280;3299;42.004;24.868;2022-07-06T11:36:58;98046.38;;;32.14;45.34
6532;BME280;3299;42.004;24.868;2022-07-06T11:39:28;98047.38;;;32.08;46.05
6532;BME280;3299;42.004;24.868;2022-07-06T11:41:55;98044.69;;;32.08;45.18
6532;BME280;3299;42.004;24.868;2022-07-06T11:44:20;98043.50;;;31.99;46.11
6532;BME280;3299;42.004;24.868;2022-07-06T11:46:46;98035.97;;;31.96;45.02
6532;BME280;3299;42.004;24.868;2022-07-06T11:49:11;98035.47;;;31.99;44.45
6532;BME280;3299;42.004;24.868;2022-07-06T11:51:39;98032.00;;;31.99;44.68
6532;BME280;3299;42.004;24.868;2022-07-06T11:54:12;98035.03;;;32.07;44.81
6532;BME280;3299;42.004;24.868;2022-07-06T11:56:49;98037.34;;;32.20;43.54
6532;BME280;3299;42.004;24.868;2022-07-06T11:59:16;98029.59;;;32.24;43.44
6532;BME280;3299;42.004;24.868;2022-07-06T12:01:42;98028.00;;;32.23;43.63
6532;BME280;3299;42.004;24.868;2022-07-06T12:04:10;98021.69;;;32.12;43.20
6532;BME280;3299;42.004;24.868;2022-07-06T12:06:36;98022.03;;;32.42;42.50
6532;BME280;3299;42.004;24.868;2022-07-06T12:09:02;98011.53;;;32.62;42.22
6532;BME280;3299;42.004;24.868;2022-07-06T12:11:35;98016.00;;;32.78;42.24
6532;BME280;3299;42.004;24.868;2022-07-06T12:14:12;98018.78;;;32.93;41.55
6532;BME280;3299;42.004;24.868;2022-07-06T12:16:41;98023.31;;;32.88;41.28
6532;BME280;3299;42.004;24.868;2022-07-06T12:19:07;98016.88;;;32.89;41.14
6532;BME280;3299;42.004;24.868;2022-07-06T12:21:34;98024.59;;;32.80;41.02
6532;BME280;3299;42.004;24.868;2022-07-06T12:23:59;98023.97;;;32.73;41.28
6532;BME280;3299;42.004;24.868;2022-07-06T12:26:27;98025.75;;;32.94;41.82
6532;BME280;3299;42.004;24.868;2022-07-06T12:29:04;98022.66;;;33.07;41.99
6532;BME280;3299;42.004;24.868;2022-07-06T12:31:42;98024.72;;;33.27;39.64
6532;BME280;3299;42.004;24.868;2022-07-06T12:34:14;98018.59;;;33.36;40.15
6532;BME280;3299;42.004;24.868;2022-07-06T12:36:47;98012.81;;;33.64;40.64
6532;BME280;3299;42.004;24.868;2022-07-06T12:39:16;98017.31;;;34.05;39.25
6532;BME280;3299;42.004;24.868;2022-07-06T12:44:19;98017.38;;;34.25;37.19
6532;BME280;3299;42.004;24.868;2022-07-06T12:46:46;98018.47;;;34.24;37.35
6532;BME280;3299;42.004;24.868;2022-07-06T12:49:23;98011.47;;;34.23;37.16
6532;BME280;3299;42.004;24.868;2022-07-06T12:51:56;98002.94;;;34.36;37.46
6532;BME280;3299;42.004;24.868;2022-07-06T12:54:45;97996.44;;;34.17;37.07
6532;BME280;3299;42.004;24.868;2022-07-06T12:57:17;97986.81;;;34.31;37.06
6532;BME280;3299;42.004;24.868;2022-07-06T13:04:54;98007.84;;;35.04;35.31
6532;BME280;3299;42.004;24.868;2022-07-06T13:07:20;98002.72;;;35.23;35.13
6532;BME280;3299;42.004;24.868;2022-07-06T13:09:45;98001.59;;;35.49;34.93
6532;BME280;3299;42.004;24.868;2022-07-06T13:12:11;98001.53;;;35.59;33.76
6532;BME280;3299;42.004;24.868;2022-07-06T13:14:36;98002.34;;;35.69;34.00
6532;BME280;3299;42.004;24.868;2022-07-06T13:17:02;97995.38;;;35.53;34.35
6532;BME280;3299;42.004;24.868;2022-07-06T13:19:27;98002.13;;;35.46;33.86
6532;BME280;3299;42.004;24.868;2022-07-06T13:21:53;97996.22;;;35.39;33.46
6532;BME280;3299;42.004;24.868;2022-07-06T13:24:18;97992.69;;;35.48;33.73